sensor_id;sensor_type;location;lat;lon;timestamp;temperature;humidity
17152;DHT22;8691;50.828;4.700;2022-07-29T00:00:29;19.30;96.70
17152;DHT22;8691;50.828;4.700;2022-07-29T00:02:56;19.30;97.10
17152;DHT22;8691;50.828;4.700;2022-07-29T00:05:23;19.30;97.00
17152;DHT22;8691;50.828;4.700;2022-07-29T00:07:50;19.30;96.90
17152;DHT22;8691;50.828;4.700;2022-07-29T00:10:17;19.30;97.20
17152;DHT22;8691;50.828;4.700;2022-07-29T00:12:43;19.30;97.20
17152;DHT22;8691;50.828;4.700;2022-07-29T00:15:10;19.30;97.70
17152;DHT22;8691;50.828;4.700;2022-07-29T00:17:37;19.30;97.40
17152;DHT22;8691;50.828;4.700;2022-07-29T00:20:04;19.20;97.50
17152;DHT22;8691;50.828;4.700;2022-07-29T00:22:31;19.20;97.50
17152;DHT22;8691;50.828;4.700;2022-07-29T00:24:57;19.20;97.60
17152;DHT22;8691;50.828;4.700;2022-07-29T00:27:24;19.20;97.70
17152;DHT22;8691;50.828;4.700;2022-07-29T00:29:51;19.20;97.80
17152;DHT22;8691;50.828;4.700;2022-07-29T00:32:18;19.10;98.00
17152;DHT22;8691;50.828;4.700;2022-07-29T00:34:45;19.10;98.00
17152;DHT22;8691;50.828;4.700;2022-07-29T00:37:30;19.10;98.10
17152;DHT22;8691;50.828;4.700;2022-07-29T00:39:57;19.10;98.10
17152;DHT22;8691;50.828;4.700;2022-07-29T00:42:24;19.00;98.30
17152;DHT22;8691;50.828;4.700;2022-07-29T00:44:51;19.00;98.30
17152;DHT22;8691;50.828;4.700;2022-07-29T00:47:18;19.00;98.50
17152;DHT22;8691;50.828;4.700;2022-07-29T00:49:45;19.00;98.50
17152;DHT22;8691;50.828;4.700;2022-07-29T00:52:12;18.90;98.80
17152;DHT22;8691;50.828;4.700;2022-07-29T00:54:39;18.90;98.80
17152;DHT22;8691;50.828;4.700;2022-07-29T00:57:07;18.70;98.90
17152;DHT22;8691;50.828;4.700;2022-07-29T00:59:33;18.70;98.90
17152;DHT22;8691;50.828;4.700;2022-07-29T01:02:01;18.60;99.30
17152;DHT22;8691;50.828;4.700;2022-07-29T01:04:28;18.60;99.40
17152;DHT22;8691;50.828;4.700;2022-07-29T01:06:54;18.50;99.40
17152;DHT22;8691;50.828;4.700;2022-07-29T01:09:21;18.50;99.60
17152;DHT22;8691;50.828;4.700;2022-07-29T01:11:48;18.50;99.60
17152;DHT22;8691;50.828;4.700;2022-07-29T01:14:15;18.50;99.90
17152;DHT22;8691;50.828;4.700;2022-07-29T01:16:46;18.50;99.80
17152;DHT22;8691;50.828;4.700;2022-07-29T01:22:21;18.40;99.90
17152;DHT22;8691;50.828;4.700;2022-07-29T01:30:30;18.50;99.90
17152;DHT22;8691;50.828;4.700;2022-07-29T01:32:58;18.40;99.90
17152;DHT22;8691;50.828;4.700;2022-07-29T01:35:25;18.30;99.90
17152;DHT22;8691;50.828;4.700;2022-07-29T01:37:52;18.20;99.90
17152;DHT22;8691;50.828;4.700;2022-07-29T01:40:20;18.10;99.90
17152;DHT22;8691;50.828;4.700;2022-07-29T01:42:48;17.90;99.90
17152;DHT22;8691;50.828;4.700;2022-07-29T01:45:17;17.80;99.90
17152;DHT22;8691;50.828;4.700;2022-07-29T01:47:53;17.80;99.90
17152;DHT22;8691;50.828;4.700;2022-07-29T01:50:10;17.70;99.90
17152;DHT22;8691;50.828;4.700;2022-07-29T01:52:46;17.60;99.90
17152;DHT22;8691;50.828;4.700;2022-07-29T01:55:11;17.60;99.90
17152;DHT22;8691;50.828;4.700;2022-07-29T01:57:34;17.60;99.90
17152;DHT22;8691;50.828;4.700;2022-07-29T02:00:02;17.60;99.90
17152;DHT22;8691;50.828;4.700;2022-07-29T02:02:28;17.70;99.90
17152;DHT22;8691;50.828;4.700;2022-07-29T02:04:55;17.70;99.90
17152;DHT22;8691;50.828;4.700;2022-07-29T02:07:23;17.70;99.90
17152;DHT22;8691;50.828;4.700;2022-07-29T02:09:50;17.70;99.90
17152;DHT22;8691;50.828;4.700;2022-07-29T02:12:17;17.70;99.90
17152;DHT22;8691;50.828;4.700;2022-07-29T02:14:47;17.70;99.90
17152;DHT22;8691;50.828;4.700;2022-07-29T02:17:12;17.70;99.90
17152;DHT22;8691;50.828;4.700;2022-07-29T02:19:39;17.70;99.90
17152;DHT22;8691;50.828;4.700;2022-07-29T02:22:06;17.70;99.90
17152;DHT22;8691;50.828;4.700;2022-07-29T02:24:33;17.70;99.90
17152;DHT22;8691;50.828;4.700;2022-07-29T02:26:59;17.80;99.90
17152;DHT22;8691;50.828;4.700;2022-07-29T02:29:26;17.80;99.90
17152;DHT22;8691;50.828;4.700;2022-07-29T02:31:53;17.70;99.90
17152;DHT22;8691;50.828;4.700;2022-07-29T02:34:20;17.60;99.90
17152;DHT22;8691;50.828;4.700;2022-07-29T02:36:47;17.60;99.90
17152;DHT22;8691;50.828;4.700;2022-07-29T02:39:14;17.70;99.90
17152;DHT22;8691;50.828;4.700;2022-07-29T02:41:45;17.60;99.90
17152;DHT22;8691;50.828;4.700;2022-07-29T02:44:11;17.70;99.90
17152;DHT22;8691;50.828;4.700;2022-07-29T02:46:38;17.60;99.90
17152;DHT22;8691;50.828;4.700;2022-07-29T02:49:18;17.60;99.90
17152;DHT22;8691;50.828;4.700;2022-07-29T02:51:44;17.60;99.90
17152;DHT22;8691;50.828;4.700;2022-07-29T02:54:10;17.50;99.90
17152;DHT22;8691;50.828;4.700;2022-07-29T02:56:37;17.40;99.90
17152;DHT22;8691;50.828;4.700;2022-07-29T02:59:06;17.30;99.90
17152;DHT22;8691;50.828;4.700;2022-07-29T03:01:31;17.30;99.90
17152;DHT22;8691;50.828;4.700;2022-07-29T03:03:59;16.90;99.90
17152;DHT22;8691;50.828;4.700;2022-07-29T03:06:25;16.80;99.90
17152;DHT22;8691;50.828;4.700;2022-07-29T03:08:51;16.50;99.90
17152;DHT22;8691;50.828;4.700;2022-07-29T03:11:18;16.50;99.90
17152;DHT22;8691;50.828;4.700;2022-07-29T03:13:46;16.40;99.90
17152;DHT22;8691;50.828;4.700;2022-07-29T03:16:12;16.30;99.90
17152;DHT22;8691;50.828;4.700;2022-07-29T03:18:39;16.20;99.90
17152;DHT22;8691;50.828;4.700;2022-07-29T03:21:06;16.20;99.90
17152;DHT22;8691;50.828;4.700;2022-07-29T03:23:34;16.10;99.90
17152;DHT22;8691;50.828;4.700;2022-07-29T03:26:00;16.00;99.90
17152;DHT22;8691;50.828;4.700;2022-07-29T03:28:27;16.00;99.90
17152;DHT22;8691;50.828;4.700;2022-07-29T03:30:54;16.00;99.90
17152;DHT22;8691;50.828;4.700;2022-07-29T03:33:21;15.90;99.90
17152;DHT22;8691;50.828;4.700;2022-07-29T03:35:48;15.90;99.90
17152;DHT22;8691;50.828;4.700;2022-07-29T03:38:15;15.80;99.90
17152;DHT22;8691;50.828;4.700;2022-07-29T03:40:52;15.80;99.90
17152;DHT22;8691;50.828;4.700;2022-07-29T03:43:15;15.80;99.90
17152;DHT22;8691;50.828;4.700;2022-07-29T03:45:42;15.80;99.90
17152;DHT22;8691;50.828;4.700;2022-07-29T03:48:10;15.70;99.90
17152;DHT22;8691;50.828;4.700;2022-07-29T03:50:35;15.60;99.90
17152;DHT22;8691;50.828;4.700;2022-07-29T03:53:01;15.60;99.90
17152;DHT22;8691;50.828;4.700;2022-07-29T03:55:28;15.60;99.90
17152;DHT22;8691;50.828;4.700;2022-07-29T03:57:55;15.60;99.90
17152;DHT22;8691;50.828;4.700;2022-07-29T04:00:22;15.50;99.90
17152;DHT22;8691;50.828;4.700;2022-07-29T04:02:48;15.60;99.90
17152;DHT22;8691;50.828;4.700;2022-07-29T04:05:15;15.50;99.90
17152;DHT22;8691;50.828;4.700;2022-07-29T04:07:45;15.50;99.90
17152;DHT22;8691;50.828;4.700;2022-07-29T04:10:11;15.40;99.90
17152;DHT22;8691;50.828;4.700;2022-07-29T04:12:39;15.30;99.90
17152;DHT22;8691;50.828;4.700;2022-07-29T04:15:06;15.30;99.90
17152;DHT22;8691;50.828;4.700;2022-07-29T04:17:33;15.30;99.90
17152;DHT22;8691;50.828;4.700;2022-07-29T04:19:59;15.20;99.90
17152;DHT22;8691;50.828;4.700;2022-07-29T04:22:26;15.20;99.90
17152;DHT22;8691;50.828;4.700;2022-07-29T04:24:52;15.20;99.90
17152;DHT22;8691;50.828;4.700;2022-07-29T04:27:19;15.20;99.90
17152;DHT22;8691;50.828;4.700;2022-07-29T04:29:46;15.20;99.90
17152;DHT22;8691;50.828;4.700;2022-07-29T04:32:13;15.30;99.90
17152;DHT22;8691;50.828;4.700;2022-07-29T04:34:39;15.40;99.90
17152;DHT22;8691;50.828;4.700;2022-07-29T04:37:06;15.50;99.90
17152;DHT22;8691;50.828;4.700;2022-07-29T04:39:33;15.50;99.90
17152;DHT22;8691;50.828;4.700;2022-07-29T04:42:00;15.60;99.90
17152;DHT22;8691;50.828;4.700;2022-07-29T04:44:27;15.80;99.90
17152;DHT22;8691;50.828;4.700;2022-07-29T04:46:53;15.80;99.90
17152;DHT22;8691;50.828;4.700;2022-07-29T04:49:21;16.10;99.90
17152;DHT22;8691;50.828;4.700;2022-07-29T04:51:47;16.10;99.90
17152;DHT22;8691;50.828;4.700;2022-07-29T04:54:15;16.40;99.90
17152;DHT22;8691;50.828;4.700;2022-07-29T04:56:42;16.40;99.90
17152;DHT22;8691;50.828;4.700;2022-07-29T04:59:09;16.50;99.90
17152;DHT22;8691;50.828;4.700;2022-07-29T05:01:35;16.50;99.90
17152;DHT22;8691;50.828;4.700;2022-07-29T05:04:02;16.60;99.90
17152;DHT22;8691;50.828;4.700;2022-07-29T05:06:29;16.60;99.90
17152;DHT22;8691;50.828;4.700;2022-07-29T05:08:55;16.70;99.90
17152;DHT22;8691;50.828;4.700;2022-07-29T05:11:22;16.70;99.90
17152;DHT22;8691;50.828;4.700;2022-07-29T05:13:49;16.80;99.90
17152;DHT22;8691;50.828;4.700;2022-07-29T05:16:16;16.80;99.90
17152;DHT22;8691;50.828;4.700;2022-07-29T05:18:43;17.00;99.90
17152;DHT22;8691;50.828;4.700;2022-07-29T05:21:10;17.00;99.90
17152;DHT22;8691;50.828;4.700;2022-07-29T05:23:37;17.30;99.90
17152;DHT22;8691;50.828;4.700;2022-07-29T05:26:04;17.30;99.90
17152;DHT22;8691;50.828;4.700;2022-07-29T05:28:34;17.80;99.90
17152;DHT22;8691;50.828;4.700;2022-07-29T05:31:01;17.80;99.90
17152;DHT22;8691;50.828;4.700;2022-07-29T05:33:27;18.00;99.90
17152;DHT22;8691;50.828;4.700;2022-07-29T05:35:54;18.30;99.90
17152;DHT22;8691;50.828;4.700;2022-07-29T05:38:21;18.70;99.90
17152;DHT22;8691;50.828;4.700;2022-07-29T05:40:48;18.70;99.90
17152;DHT22;8691;50.828;4.700;2022-07-29T05:43:15;19.10;99.90
17152;DHT22;8691;50.828;4.700;2022-07-29T05:45:41;19.40;99.90
17152;DHT22;8691;50.828;4.700;2022-07-29T05:48:08;20.10;99.90
17152;DHT22;8691;50.828;4.700;2022-07-29T05:50:35;22.90;98.30
17152;DHT22;8691;50.828;4.700;2022-07-29T05:53:02;22.90;98.30
17152;DHT22;8691;50.828;4.700;2022-07-29T05:55:29;25.30;93.30
17152;DHT22;8691;50.828;4.700;2022-07-29T05:57:56;25.20;93.20
17152;DHT22;8691;50.828;4.700;2022-07-29T06:00:23;27.70;83.00
17152;DHT22;8691;50.828;4.700;2022-07-29T06:02:50;27.60;82.90
17152;DHT22;8691;50.828;4.700;2022-07-29T06:05:17;28.80;78.90
17152;DHT22;8691;50.828;4.700;2022-07-29T06:07:45;28.70;78.90
17152;DHT22;8691;50.828;4.700;2022-07-29T06:10:13;28.50;75.20
17152;DHT22;8691;50.828;4.700;2022-07-29T06:12:40;28.50;75.20
17152;DHT22;8691;50.828;4.700;2022-07-29T06:15:08;28.80;74.50
17152;DHT22;8691;50.828;4.700;2022-07-29T06:17:35;28.80;73.90
17152;DHT22;8691;50.828;4.700;2022-07-29T06:20:03;29.40;72.30
17152;DHT22;8691;50.828;4.700;2022-07-29T06:22:31;29.50;70.80
17152;DHT22;8691;50.828;4.700;2022-07-29T06:24:58;29.50;70.80
17152;DHT22;8691;50.828;4.700;2022-07-29T06:27:26;29.90;69.70
17152;DHT22;8691;50.828;4.700;2022-07-29T06:29:53;29.90;69.70
17152;DHT22;8691;50.828;4.700;2022-07-29T06:32:21;29.80;68.80
17152;DHT22;8691;50.828;4.700;2022-07-29T06:34:48;29.80;68.80
17152;DHT22;8691;50.828;4.700;2022-07-29T06:37:16;30.40;67.80
17152;DHT22;8691;50.828;4.700;2022-07-29T06:39:44;30.40;67.80
17152;DHT22;8691;50.828;4.700;2022-07-29T06:42:11;31.30;65.50
17152;DHT22;8691;50.828;4.700;2022-07-29T06:44:38;31.40;65.50
17152;DHT22;8691;50.828;4.700;2022-07-29T06:47:05;31.60;64.50
17152;DHT22;8691;50.828;4.700;2022-07-29T06:49:32;32.00;62.90
17152;DHT22;8691;50.828;4.700;2022-07-29T06:51:59;31.40;62.70
17152;DHT22;8691;50.828;4.700;2022-07-29T06:54:26;31.80;63.60
17152;DHT22;8691;50.828;4.700;2022-07-29T06:56:53;32.10;62.80
17152;DHT22;8691;50.828;4.700;2022-07-29T06:59:20;32.10;62.70
17152;DHT22;8691;50.828;4.700;2022-07-29T07:01:48;32.70;60.80
17152;DHT22;8691;50.828;4.700;2022-07-29T07:04:15;32.70;60.80
17152;DHT22;8691;50.828;4.700;2022-07-29T07:06:43;32.20;62.20
17152;DHT22;8691;50.828;4.700;2022-07-29T07:09:10;32.20;61.40
17152;DHT22;8691;50.828;4.700;2022-07-29T07:11:37;32.50;60.30
17152;DHT22;8691;50.828;4.700;2022-07-29T07:14:04;33.30;59.50
17152;DHT22;8691;50.828;4.700;2022-07-29T07:23:42;33.50;59.20
17152;DHT22;8691;50.828;4.700;2022-07-29T07:26:10;35.10;55.90
17152;DHT22;8691;50.828;4.700;2022-07-29T07:28:37;34.70;55.80
17152;DHT22;8691;50.828;4.700;2022-07-29T07:31:04;34.30;57.10
17152;DHT22;8691;50.828;4.700;2022-07-29T07:33:31;34.20;56.70
17152;DHT22;8691;50.828;4.700;2022-07-29T07:35:59;35.10;55.50
17152;DHT22;8691;50.828;4.700;2022-07-29T07:38:26;35.40;55.40
17152;DHT22;8691;50.828;4.700;2022-07-29T07:40:53;35.40;55.40
17152;DHT22;8691;50.828;4.700;2022-07-29T07:43:21;35.00;55.50
17152;DHT22;8691;50.828;4.700;2022-07-29T07:45:48;34.60;55.00
17152;DHT22;8691;50.828;4.700;2022-07-29T07:48:15;34.40;56.10
17152;DHT22;8691;50.828;4.700;2022-07-29T07:50:42;34.60;56.60
17152;DHT22;8691;50.828;4.700;2022-07-29T07:53:09;35.30;54.80
17152;DHT22;8691;50.828;4.700;2022-07-29T07:55:41;35.80;53.80
17152;DHT22;8691;50.828;4.700;2022-07-29T07:58:09;35.60;54.80
17152;DHT22;8691;50.828;4.700;2022-07-29T08:00:36;35.50;54.70
17152;DHT22;8691;50.828;4.700;2022-07-29T08:03:04;34.00;55.70
17152;DHT22;8691;50.828;4.700;2022-07-29T08:05:31;34.00;55.70
17152;DHT22;8691;50.828;4.700;2022-07-29T08:07:59;34.80;55.90
17152;DHT22;8691;50.828;4.700;2022-07-29T08:10:26;34.80;55.90
17152;DHT22;8691;50.828;4.700;2022-07-29T08:13:11;35.80;54.10
17152;DHT22;8691;50.828;4.700;2022-07-29T08:15:39;35.30;54.50
17152;DHT22;8691;50.828;4.700;2022-07-29T08:18:06;35.30;54.50
17152;DHT22;8691;50.828;4.700;2022-07-29T08:20:37;35.90;53.50
17152;DHT22;8691;50.828;4.700;2022-07-29T08:23:05;35.90;53.20
17152;DHT22;8691;50.828;4.700;2022-07-29T08:25:32;36.10;53.20
17152;DHT22;8691;50.828;4.700;2022-07-29T08:27:58;36.30;53.40
17152;DHT22;8691;50.828;4.700;2022-07-29T08:30:25;36.30;53.00
17152;DHT22;8691;50.828;4.700;2022-07-29T08:32:53;37.00;51.90
17152;DHT22;8691;50.828;4.700;2022-07-29T08:35:20;36.90;51.80
17152;DHT22;8691;50.828;4.700;2022-07-29T08:37:47;37.10;50.90
17152;DHT22;8691;50.828;4.700;2022-07-29T08:40:15;37.10;50.90
17152;DHT22;8691;50.828;4.700;2022-07-29T08:42:43;36.90;51.50
17152;DHT22;8691;50.828;4.700;2022-07-29T08:45:10;36.90;51.60
17152;DHT22;8691;50.828;4.700;2022-07-29T08:47:41;36.70;51.20
17152;DHT22;8691;50.828;4.700;2022-07-29T08:50:08;36.80;51.90
17152;DHT22;8691;50.828;4.700;2022-07-29T08:52:38;37.20;51.00
17152;DHT22;8691;50.828;4.700;2022-07-29T08:55:08;37.50;50.60
17152;DHT22;8691;50.828;4.700;2022-07-29T08:57:34;37.40;50.60
17152;DHT22;8691;50.828;4.700;2022-07-29T09:00:02;36.90;51.60
17152;DHT22;8691;50.828;4.700;2022-07-29T09:02:28;37.30;51.00
17152;DHT22;8691;50.828;4.700;2022-07-29T09:04:56;36.50;51.30
17152;DHT22;8691;50.828;4.700;2022-07-29T09:07:22;36.30;52.30
17152;DHT22;8691;50.828;4.700;2022-07-29T09:09:50;36.90;50.80
17152;DHT22;8691;50.828;4.700;2022-07-29T09:12:18;36.90;50.30
17152;DHT22;8691;50.828;4.700;2022-07-29T09:14:45;36.90;50.30
17152;DHT22;8691;50.828;4.700;2022-07-29T09:17:12;36.70;51.70
17152;DHT22;8691;50.828;4.700;2022-07-29T09:19:39;36.80;51.10
17152;DHT22;8691;50.828;4.700;2022-07-29T09:22:06;37.10;50.70
17152;DHT22;8691;50.828;4.700;2022-07-29T09:27:11;36.60;50.50
17152;DHT22;8691;50.828;4.700;2022-07-29T09:29:37;36.60;50.50
17152;DHT22;8691;50.828;4.700;2022-07-29T09:32:06;35.90;51.60
17152;DHT22;8691;50.828;4.700;2022-07-29T09:34:33;35.90;51.60
17152;DHT22;8691;50.828;4.700;2022-07-29T09:37:00;35.80;50.60
17152;DHT22;8691;50.828;4.700;2022-07-29T09:39:28;35.90;50.60
17152;DHT22;8691;50.828;4.700;2022-07-29T09:41:56;35.40;51.10
17152;DHT22;8691;50.828;4.700;2022-07-29T09:44:22;35.50;51.40
17152;DHT22;8691;50.828;4.700;2022-07-29T09:47:04;35.40;51.60
17152;DHT22;8691;50.828;4.700;2022-07-29T09:49:50;35.80;50.60
17152;DHT22;8691;50.828;4.700;2022-07-29T09:52:02;36.20;49.50
17152;DHT22;8691;50.828;4.700;2022-07-29T09:54:27;36.10;50.00
17152;DHT22;8691;50.828;4.700;2022-07-29T09:56:55;36.10;49.60
17152;DHT22;8691;50.828;4.700;2022-07-29T09:59:22;36.00;49.50
17152;DHT22;8691;50.828;4.700;2022-07-29T10:01:50;35.80;49.40
17152;DHT22;8691;50.828;4.700;2022-07-29T10:04:17;35.60;50.20
17152;DHT22;8691;50.828;4.700;2022-07-29T10:06:57;35.50;51.50
17152;DHT22;8691;50.828;4.700;2022-07-29T10:09:23;36.40;50.40
17152;DHT22;8691;50.828;4.700;2022-07-29T10:12:09;35.90;49.70
17152;DHT22;8691;50.828;4.700;2022-07-29T10:14:35;35.90;49.90
17152;DHT22;8691;50.828;4.700;2022-07-29T10:17:03;36.00;49.20
17152;DHT22;8691;50.828;4.700;2022-07-29T10:19:30;35.50;49.80
17152;DHT22;8691;50.828;4.700;2022-07-29T10:21:58;35.80;51.10
17152;DHT22;8691;50.828;4.700;2022-07-29T10:24:28;35.70;51.00
17152;DHT22;8691;50.828;4.700;2022-07-29T10:26:55;35.50;51.20
17152;DHT22;8691;50.828;4.700;2022-07-29T10:29:22;35.40;50.80
17152;DHT22;8691;50.828;4.700;2022-07-29T10:32:13;35.00;50.10
17152;DHT22;8691;50.828;4.700;2022-07-29T10:35:01;34.80;51.00
17152;DHT22;8691;50.828;4.700;2022-07-29T10:37:42;35.00;51.50
17152;DHT22;8691;50.828;4.700;2022-07-29T10:42:59;35.50;50.70
17152;DHT22;8691;50.828;4.700;2022-07-29T10:45:25;34.90;51.40
17152;DHT22;8691;50.828;4.700;2022-07-29T10:48:04;34.60;52.20
17152;DHT22;8691;50.828;4.700;2022-07-29T10:50:57;34.40;51.80
17152;DHT22;8691;50.828;4.700;2022-07-29T10:53:23;34.70;51.40
17152;DHT22;8691;50.828;4.700;2022-07-29T10:55:50;34.20;51.90
17152;DHT22;8691;50.828;4.700;2022-07-29T10:58:21;33.40;52.80
17152;DHT22;8691;50.828;4.700;2022-07-29T11:00:48;32.50;53.90
17152;DHT22;8691;50.828;4.700;2022-07-29T11:06:09;31.30;55.60
17152;DHT22;8691;50.828;4.700;2022-07-29T11:08:36;31.20;56.10
17152;DHT22;8691;50.828;4.700;2022-07-29T11:13:51;31.30;55.90
17152;DHT22;8691;50.828;4.700;2022-07-29T11:16:18;30.90;55.80
17152;DHT22;8691;50.828;4.700;2022-07-29T11:21:39;30.00;57.80
17152;DHT22;8691;50.828;4.700;2022-07-29T11:24:20;29.60;60.40
17152;DHT22;8691;50.828;4.700;2022-07-29T11:26:59;29.60;60.50
17152;DHT22;8691;50.828;4.700;2022-07-29T11:29:21;30.00;59.60
17152;DHT22;8691;50.828;4.700;2022-07-29T11:31:52;30.20;58.50
17152;DHT22;8691;50.828;4.700;2022-07-29T11:34:19;30.50;58.30
17152;DHT22;8691;50.828;4.700;2022-07-29T11:39:31;29.90;58.00
17152;DHT22;8691;50.828;4.700;2022-07-29T11:45:05;29.10;60.30
17152;DHT22;8691;50.828;4.700;2022-07-29T11:47:38;30.20;58.20
17152;DHT22;8691;50.828;4.700;2022-07-29T11:50:07;30.10;58.20
17152;DHT22;8691;50.828;4.700;2022-07-29T11:52:34;30.60;58.20
17152;DHT22;8691;50.828;4.700;2022-07-29T11:55:01;30.50;58.40
17152;DHT22;8691;50.828;4.700;2022-07-29T11:57:27;30.30;58.00
17152;DHT22;8691;50.828;4.700;2022-07-29T11:59:54;30.00;58.90
17152;DHT22;8691;50.828;4.700;2022-07-29T12:02:21;30.10;59.20
17152;DHT22;8691;50.828;4.700;2022-07-29T12:04:51;29.90;59.00
17152;DHT22;8691;50.828;4.700;2022-07-29T12:07:18;29.90;58.60
17152;DHT22;8691;50.828;4.700;2022-07-29T12:09:51;29.90;59.00
17152;DHT22;8691;50.828;4.700;2022-07-29T12:12:19;29.90;58.70
17152;DHT22;8691;50.828;4.700;2022-07-29T12:14:45;29.80;58.60
17152;DHT22;8691;50.828;4.700;2022-07-29T12:17:29;30.70;57.40
17152;DHT22;8691;50.828;4.700;2022-07-29T12:19:58;30.70;57.40
17152;DHT22;8691;50.828;4.700;2022-07-29T12:22:27;30.80;56.00
17152;DHT22;8691;50.828;4.700;2022-07-29T12:24:54;30.30;57.00
17152;DHT22;8691;50.828;4.700;2022-07-29T12:27:21;30.20;57.50
17152;DHT22;8691;50.828;4.700;2022-07-29T12:29:57;30.30;58.50
17152;DHT22;8691;50.828;4.700;2022-07-29T12:32:24;31.00;55.80
17152;DHT22;8691;50.828;4.700;2022-07-29T12:34:51;31.10;56.10
17152;DHT22;8691;50.828;4.700;2022-07-29T12:37:18;30.80;55.80
17152;DHT22;8691;50.828;4.700;2022-07-29T12:39:45;30.70;56.10
17152;DHT22;8691;50.828;4.700;2022-07-29T12:42:12;30.70;57.60
17152;DHT22;8691;50.828;4.700;2022-07-29T12:44:46;31.10;56.10
17152;DHT22;8691;50.828;4.700;2022-07-29T12:47:10;31.10;56.10
17152;DHT22;8691;50.828;4.700;2022-07-29T12:49:37;31.00;57.50
17152;DHT22;8691;50.828;4.700;2022-07-29T12:52:26;31.30;55.70
17152;DHT22;8691;50.828;4.700;2022-07-29T12:54:52;31.10;54.70
17152;DHT22;8691;50.828;4.700;2022-07-29T12:57:19;30.70;55.40
17152;DHT22;8691;50.828;4.700;2022-07-29T13:00:09;30.70;55.70
17152;DHT22;8691;50.828;4.700;2022-07-29T13:02:35;30.60;55.70
17152;DHT22;8691;50.828;4.700;2022-07-29T13:05:02;31.10;56.30
17152;DHT22;8691;50.828;4.700;2022-07-29T13:07:30;31.80;54.80
17152;DHT22;8691;50.828;4.700;2022-07-29T13:10:15;31.90;55.00
17152;DHT22;8691;50.828;4.700;2022-07-29T13:13:12;32.10;54.50
17152;DHT22;8691;50.828;4.700;2022-07-29T13:15:40;32.00;54.00
17152;DHT22;8691;50.828;4.700;2022-07-29T13:18:26;31.00;55.70
17152;DHT22;8691;50.828;4.700;2022-07-29T13:20:34;30.20;56.60
17152;DHT22;8691;50.828;4.700;2022-07-29T13:23:01;30.20;56.10
17152;DHT22;8691;50.828;4.700;2022-07-29T13:25:29;30.40;56.20
17152;DHT22;8691;50.828;4.700;2022-07-29T13:27:56;30.70;57.00
17152;DHT22;8691;50.828;4.700;2022-07-29T13:30:23;31.00;55.30
17152;DHT22;8691;50.828;4.700;2022-07-29T13:32:50;31.00;55.40
17152;DHT22;8691;50.828;4.700;2022-07-29T13:35:17;31.40;54.70
17152;DHT22;8691;50.828;4.700;2022-07-29T13:37:44;31.40;54.80
17152;DHT22;8691;50.828;4.700;2022-07-29T13:40:11;31.30;54.50
17152;DHT22;8691;50.828;4.700;2022-07-29T13:42:38;31.30;54.60
17152;DHT22;8691;50.828;4.700;2022-07-29T13:45:05;31.10;54.60
17152;DHT22;8691;50.828;4.700;2022-07-29T13:47:32;30.40;54.00
17152;DHT22;8691;50.828;4.700;2022-07-29T13:50:01;30.20;54.90
17152;DHT22;8691;50.828;4.700;2022-07-29T13:52:27;30.20;54.90
17152;DHT22;8691;50.828;4.700;2022-07-29T13:54:55;30.30;54.80
17152;DHT22;8691;50.828;4.700;2022-07-29T13:57:21;30.40;54.50
17152;DHT22;8691;50.828;4.700;2022-07-29T13:59:48;30.80;55.10
17152;DHT22;8691;50.828;4.700;2022-07-29T14:02:16;31.00;53.50
17152;DHT22;8691;50.828;4.700;2022-07-29T14:04:43;31.00;53.50
17152;DHT22;8691;50.828;4.700;2022-07-29T14:07:11;30.70;55.40
17152;DHT22;8691;50.828;4.700;2022-07-29T14:09:37;30.70;55.40
17152;DHT22;8691;50.828;4.700;2022-07-29T14:12:04;30.80;54.70
17152;DHT22;8691;50.828;4.700;2022-07-29T14:14:32;30.70;53.40
17152;DHT22;8691;50.828;4.700;2022-07-29T14:16:59;30.70;53.40
17152;DHT22;8691;50.828;4.700;2022-07-29T14:19:26;30.50;53.60
17152;DHT22;8691;50.828;4.700;2022-07-29T14:21:53;30.20;54.50
17152;DHT22;8691;50.828;4.700;2022-07-29T14:24:20;30.00;55.30
17152;DHT22;8691;50.828;4.700;2022-07-29T14:26:47;29.70;55.70
17152;DHT22;8691;50.828;4.700;2022-07-29T14:29:14;29.60;56.10
17152;DHT22;8691;50.828;4.700;2022-07-29T14:31:41;29.60;56.20
17152;DHT22;8691;50.828;4.700;2022-07-29T14:34:08;29.80;56.20
17152;DHT22;8691;50.828;4.700;2022-07-29T14:36:36;29.40;56.40
17152;DHT22;8691;50.828;4.700;2022-07-29T14:39:03;29.30;57.50
17152;DHT22;8691;50.828;4.700;2022-07-29T14:41:31;29.30;57.50
17152;DHT22;8691;50.828;4.700;2022-07-29T14:43:59;29.20;58.10
17152;DHT22;8691;50.828;4.700;2022-07-29T14:46:28;29.20;58.10
17152;DHT22;8691;50.828;4.700;2022-07-29T14:48:55;29.20;58.10
17152;DHT22;8691;50.828;4.700;2022-07-29T14:51:23;29.30;57.90
17152;DHT22;8691;50.828;4.700;2022-07-29T14:53:49;29.30;57.90
17152;DHT22;8691;50.828;4.700;2022-07-29T14:56:16;29.30;57.90
17152;DHT22;8691;50.828;4.700;2022-07-29T14:58:43;29.40;57.30
17152;DHT22;8691;50.828;4.700;2022-07-29T15:01:11;29.40;56.50
17152;DHT22;8691;50.828;4.700;2022-07-29T15:03:38;29.40;56.50
17152;DHT22;8691;50.828;4.700;2022-07-29T15:06:06;29.70;56.60
17152;DHT22;8691;50.828;4.700;2022-07-29T15:08:33;29.70;56.00
17152;DHT22;8691;50.828;4.700;2022-07-29T15:11:01;29.80;55.60
17152;DHT22;8691;50.828;4.700;2022-07-29T15:13:28;29.90;56.20
17152;DHT22;8691;50.828;4.700;2022-07-29T15:15:55;29.80;55.50
17152;DHT22;8691;50.828;4.700;2022-07-29T15:18:22;29.50;56.00
17152;DHT22;8691;50.828;4.700;2022-07-29T15:20:50;29.30;56.80
17152;DHT22;8691;50.828;4.700;2022-07-29T15:23:17;29.30;56.80
17152;DHT22;8691;50.828;4.700;2022-07-29T15:25:45;29.00;57.40
17152;DHT22;8691;50.828;4.700;2022-07-29T15:28:12;29.00;57.30
17152;DHT22;8691;50.828;4.700;2022-07-29T15:30:40;28.80;57.30
17152;DHT22;8691;50.828;4.700;2022-07-29T15:33:08;28.80;57.20
17152;DHT22;8691;50.828;4.700;2022-07-29T15:35:35;28.90;57.50
17152;DHT22;8691;50.828;4.700;2022-07-29T15:38:01;29.00;57.60
17152;DHT22;8691;50.828;4.700;2022-07-29T15:40:29;29.10;58.30
17152;DHT22;8691;50.828;4.700;2022-07-29T15:42:55;29.00;57.20
17152;DHT22;8691;50.828;4.700;2022-07-29T15:45:22;28.90;57.30
17152;DHT22;8691;50.828;4.700;2022-07-29T15:47:50;28.60;57.00
17152;DHT22;8691;50.828;4.700;2022-07-29T15:50:17;28.60;57.00
17152;DHT22;8691;50.828;4.700;2022-07-29T15:52:45;28.50;56.50
17152;DHT22;8691;50.828;4.700;2022-07-29T15:55:12;28.50;56.50
17152;DHT22;8691;50.828;4.700;2022-07-29T15:57:40;28.00;57.60
17152;DHT22;8691;50.828;4.700;2022-07-29T16:00:08;28.00;57.60
17152;DHT22;8691;50.828;4.700;2022-07-29T16:02:35;28.00;57.70
17152;DHT22;8691;50.828;4.700;2022-07-29T16:05:02;27.80;57.20
17152;DHT22;8691;50.828;4.700;2022-07-29T16:07:28;27.70;57.70
17152;DHT22;8691;50.828;4.700;2022-07-29T16:09:55;27.70;58.40
17152;DHT22;8691;50.828;4.700;2022-07-29T16:12:22;27.90;58.30
17152;DHT22;8691;50.828;4.700;2022-07-29T16:14:50;28.10;57.80
17152;DHT22;8691;50.828;4.700;2022-07-29T16:17:18;28.10;57.70
17152;DHT22;8691;50.828;4.700;2022-07-29T16:19:46;28.10;57.10
17152;DHT22;8691;50.828;4.700;2022-07-29T16:22:13;28.00;57.10
17152;DHT22;8691;50.828;4.700;2022-07-29T16:24:40;28.10;56.90